• Join FlightAware (Why Join?)
  • Login
  • US Flag 
03:05AM EDT


 

Airport Tracker/Info


-or-


 

Live Flight TrackerFlight Track Log ✈ GJS3618 ✈ 29-Jun-2013 ✈ KDEN - KGRR

Flight Track Log - Related Links

Times and Time Zones

All times are in EDT time to prevent confusion due to time zone crossing. See the GJS3618 flight status page for this flight to view local times or setup timezone preferences in your user account.

Time Position Orientation Groundspeed Altitude Reporting Facility
EDT Latitude Longitude Course Direction KTS MPH feet Rate Location/Type
12:12PM 39.8822 -104.5742 66° East 189 217 7,000  Level Denver Center
12:14PM 39.8986 -104.4928 75° East 236 272 8,600 1,380 Climbing Denver Center
12:15PM 39.9197 -104.3933 74° East 282 325 10,200 1,440 Climbing Denver Center
12:16PM 39.9525 -104.2447 74° East 334 384 11,900 1,500 Climbing Denver Center
12:17PM 39.9764 -104.1200 76° East 353 406 13,400 1,500 Climbing Denver Center
12:18PM 40.0085 -103.7913 66° East  Level FlightAware Approximate
12:18PM 39.9897 -103.9847 83° East 373 429 15,100  Level Denver Center
12:19PM 40.0086 -103.8369 80° East 382 440 16,900 1,380 Climbing Denver Center
12:20PM 40.0331 -103.6981 77° East 374 430 18,000 1,260 Climbing Denver Center
12:21PM 40.0569 -103.5539 78° East 404 465 19,600 1,560 Climbing Denver Center
12:22PM 40.0806 -103.4094 78° East 408 470 21,300 1,440 Climbing Denver Center
12:23PM 40.1033 -103.2631 78° East 412 474 22,600 1,260 Climbing Denver Center
12:24PM 40.1328 -103.0822 78° East 428 493 24,000 1,200 Climbing Denver Center
12:25PM 40.1575 -102.9289 78° East 431 496 25,200 960 Climbing Denver Center
12:26PM 40.1808 -102.7714 79° East 440 506 26,100 960 Climbing Denver Center
12:27PM 40.2081 -102.5956 78° East 452 520 27,200 960 Climbing Denver Center
12:28PM 40.2317 -102.4397 79° East 456 525 28,100 900 Climbing Denver Center
12:29PM 40.2594 -102.2561 79° East 462 532 29,100 900 Climbing Denver Center
12:30PM 40.2839 -102.0953 79° East 469 540 30,000 1,140 Climbing Denver Center
12:31PM 40.3117 -101.9106 79° East 463 533 31,500 1,200 Climbing Denver Center
12:32PM 40.3361 -101.7531 78° East 461 531 32,500 900 Climbing Denver Center
12:33PM 40.3578 -101.5964 80° East 458 527 33,400 960 Climbing Denver Center
12:34PM 40.3844 -101.4144 79° East 457 526 34,500 960 Climbing Denver Center
12:35PM 40.4147 -101.2642 75° East 449 517 35,400 780 Climbing Denver Center
12:36PM 40.4511 -101.0900 75° East 446 513 36,200 780 Climbing Denver Center
12:38PM 40.4811 -100.9408 75° East 444 511 37,100 780 Climbing Denver Center
12:39PM 40.5161 -100.7700 75° East 438 504 37,900 600 Climbing Denver Center
12:40PM 40.5506 -100.5994 75° East 437 503 38,400 480 Climbing Denver Center
12:41PM 40.5803 -100.4536 75° East 435 501 38,900 240 Climbing Denver Center
12:42PM 40.6131 -100.2831 76° East 435 501 39,000  Climbing Denver Center
12:43PM 40.6481 -100.1075 75° East 444 511 39,000  Level Denver Center
12:44PM 40.6828 -99.9306 75° East 450 518 39,000  Level Denver Center
12:45PM 40.7108 -99.7828 76° East 452 520 39,000  Level Denver Center
12:46PM 40.7483 -99.5939 75° East 449 517 39,000  Level Minneapolis Center
12:47PM 40.7842 -99.4031 76° East 448 516 39,000  Level Minneapolis Center
12:48PM 40.8142 -99.2442 76° East 449 517 39,000  Level Minneapolis Center
12:49PM 40.8447 -99.0725 77° East 450 518 39,000  Level Minneapolis Center
12:50PM 40.8739 -98.9125 76° East 450 518 39,000  Level Minneapolis Center
12:51PM 40.9028 -98.7497 77° East 453 521 39,000  Level Minneapolis Center
12:52PM 40.9333 -98.5867 76° East 457 526 39,000  Level Minneapolis Center
12:53PM 40.9658 -98.4108 76° East 456 525 39,000  Level Minneapolis Center
12:54PM 40.9961 -98.2486 76° East 456 525 39,000  Level Minneapolis Center
12:55PM 41.0286 -98.0861 75° East 458 527 39,000  Level Minneapolis Center
12:57PM 41.0617 -97.9222 75° East 460 529 39,000  Level Minneapolis Center
12:58PM 41.1000 -97.7242 76° East 463 533 39,000  Level Minneapolis Center
12:59PM 41.1325 -97.5592 75° East 463 533 39,000  Level Minneapolis Center
01:00PM 41.1642 -97.3933 76° East 464 534 39,000  Level Minneapolis Center
01:01PM 41.1933 -97.2417 76° East 458 527 39,000  Level Minneapolis Center
01:02PM 41.2256 -97.0800 75° East 454 522 39,000  Level Minneapolis Center
01:03PM 41.2614 -96.8872 76° East 447 514 39,000  Level Minneapolis Center
01:04PM 41.2919 -96.7261 76° East 448 516 39,000  Level Minneapolis Center
01:05PM 41.3225 -96.5628 76° East 451 519 39,000  Level Minneapolis Center
01:06PM 41.3531 -96.3994 76° East 454 522 39,000  Level Minneapolis Center
01:07PM 41.3847 -96.2208 77° East 461 531 39,000  Level Minneapolis Center
01:08PM 41.4144 -96.0539 77° East 465 535 39,000  Level Minneapolis Center
01:09PM 41.4447 -95.8861 76° East 465 535 39,100  Climbing Minneapolis Center
01:10PM 41.4792 -95.6869 77° East 462 532 39,000 -60 Descending Minneapolis Center
01:11PM 41.5033 -95.5500 77° East 459 528 39,000  Level Minneapolis Center
01:12PM 41.5386 -95.3508 77° East 458 527 39,000  Level Minneapolis Center
01:13PM 41.5678 -95.1842 77° East 460 529 39,000  Level Minneapolis Center
01:14PM 41.5961 -95.0183 77° East 460 529 39,000  Level Minneapolis Center
01:15PM 41.6222 -94.8533 78° East 456 525 39,000  Level Minneapolis Center
01:16PM 41.6497 -94.6892 77° East 452 520 39,000  Level Minneapolis Center
01:17PM 41.6767 -94.5264 77° East 450 518 39,000  Level Minneapolis Center
01:18PM 41.7081 -94.3306 78° East 449 517 39,000  Level Minneapolis Center
01:19PM 41.7356 -94.1686 77° East 448 516 39,000  Level Minneapolis Center
01:20PM 41.7617 -94.0069 78° East 445 512 39,000  Level Minneapolis Center
01:21PM 41.7892 -93.8314 78° East 452 520 39,000  Level Minneapolis Center
01:22PM 41.8158 -93.6686 78° East 451 519 39,000  Level Minneapolis Center
01:23PM 41.8411 -93.5019 78° East 457 526 39,000  Level Minneapolis Center
01:24PM 41.8667 -93.3383 78° East 455 524 39,000  Level Minneapolis Center
01:25PM 41.8922 -93.1719 78° East 456 525 39,000  Level Minneapolis Center
01:27PM 41.9231 -92.9700 78° East 461 531 39,000  Level Minneapolis Center
01:27PM 41.9397 -92.8531 79° East 461 531 39,000  Level Chicago Center
01:28PM 41.9636 -92.6850 79° East 463 533 39,000  Level Chicago Center
01:29PM 41.9886 -92.5167 79° East 465 535 39,000  Level Chicago Center
01:30PM 42.0139 -92.3525 78° East 458 527 39,000  Level Chicago Center
01:31PM 42.0428 -92.1503 79° East 463 533 39,000  Level Chicago Center
01:32PM 42.0661 -91.9825 79° East 464 534 39,000  Level Chicago Center
01:33PM 42.0897 -91.8161 79° East 461 531 39,000  Level Chicago Center
01:34PM 42.1125 -91.6497 79° East 460 529 39,000  Level Chicago Center
01:35PM 42.1350 -91.4828 80° East 460 529 39,000  Level Chicago Center
01:37PM 42.1628 -91.2825 79° East 460 529 39,000  Level Chicago Center
01:38PM 42.1856 -91.1147 80° East 461 531 39,000  Level Chicago Center
01:39PM 42.2056 -90.9494 81° East 455 524 39,000  Level Chicago Center
01:40PM 42.2275 -90.7833 80° East 455 524 39,000  Level Chicago Center
01:41PM 42.2533 -90.5811 80° East 460 529 39,000  Level Chicago Center
01:42PM 42.2747 -90.4131 80° East 460 529 39,000  Level Chicago Center
01:43PM 42.2950 -90.2439 81° East 460 529 39,000  Level Chicago Center
01:44PM 42.3172 -90.0750 80° East 462 532 39,000  Level Chicago Center
01:45PM 42.3375 -89.9028 81° East 463 533 39,000  Level Chicago Center
01:46PM 42.3614 -89.7047 81° East 460 529 39,000  Level Chicago Center
01:47PM 42.3817 -89.5350 81° East 460 529 39,000  Level Chicago Center
01:48PM 42.4017 -89.3667 81° East 456 525 39,000  Level Chicago Center
01:49PM 42.4206 -89.1961 81° East 459 528 39,000  Level Chicago Center
01:50PM 42.4411 -89.0283 81° East 456 525 39,000  Level Chicago Center
01:51PM 42.4594 -88.8597 82° East 455 524 39,000  Level Chicago Center
01:52PM 42.4814 -88.6628 81° East 457 526 39,000 -120 Level Chicago Center
01:53PM 42.5011 -88.4939 81° East 455 524 38,800 -600 Descending Chicago Center
01:54PM 42.5189 -88.3239 82° East 455 524 37,800 -1,260 Descending Chicago Center
01:55PM 42.5375 -88.1522 82° East 462 532 36,300 -1,740 Descending Chicago Center
01:56PM 42.5553 -87.9856 82° East 451 519 34,300 -2,400 Descending Chicago Center
01:57PM 42.5739 -87.7967 82° East 438 504 31,400 -2,520 Descending Chicago Center
01:58PM 42.5908 -87.6317 82° East 440 506 29,100 -1,200 Descending Chicago Center
01:59PM 42.6069 -87.4683 82° East 439 505 29,000 -60 Descending Chicago Center
02:00PM 42.6244 -87.2961 82° East 442 509 29,000 -900 Level Chicago Center
02:01PM 42.6403 -87.1286 83° East 449 517 27,200 -2,100 Descending Chicago Center
02:02PM 42.6572 -86.9681 82° East 436 502 24,700 -1,620 Descending Chicago Center
02:03PM 42.6708 -86.8161 83° East 412 474 23,900 -1,140 Descending Chicago Center
02:04PM 42.6847 -86.6653 83° East 405 466 22,400 -1,860 Descending Chicago Center
02:05PM 42.6989 -86.5161 83° East 402 463 20,200 -2,880 Descending Chicago Center
02:06PM 42.7089 -86.3467 85° East 381 438 16,600 -3,120 Descending Chicago Center
02:07PM 42.6892 -86.2133 101° East 365 420 13,800 -2,760 Descending Chicago Center
02:08PM 42.6836 -86.0925 94° East 330 380 11,000 -2,160 Descending Chicago Center
02:09PM 42.6950 -85.9836 82° East 295 339 9,400 -1,560 Descending Chicago Center
02:10PM 42.6928 -85.8839 92° East 272 313 7,800 -1,620 Descending Chicago Center
02:11PM 42.6903 -85.7853 92° East 266 306 6,100 -1,860 Descending Chicago Center
02:13PM 42.6867 -85.6683 92° East 262 302 4,100 -1,620 Descending Chicago Center
02:14PM 42.6844 -85.5747 92° East 254 292 2,900 -660 Descending Chicago Center
02:15PM 42.6914 -85.5036 82° East 216 249 2,800 -240 Descending Chicago Center
02:16PM 42.7403 -85.4883 13° North 186 214 2,500 -300 Descending Chicago Center
02:17PM 42.7889 -85.4989 351° North 180 207 2,300 -420 Descending Chicago Center
02:18PM 42.8286 -85.5053 353° North 164 189 1,700 -720 Descending Chicago Center
02:19PM 42.8639 -85.5125 351° North 145 167 900 -780 Descending Chicago Center